createdAt,value
2022-08-11T00:02:35.644Z,14.79
2022-08-11T00:05:08.232Z,14.77
2022-08-11T00:07:43.505Z,14.74
2022-08-11T00:10:14.171Z,14.59
2022-08-11T00:12:43.427Z,14.71
2022-08-11T00:15:12.680Z,14.64
2022-08-11T00:17:43.007Z,14.64
2022-08-11T00:20:16.524Z,14.53
2022-08-11T00:22:48.152Z,14.55
2022-08-11T00:25:19.312Z,14.50
2022-08-11T00:27:49.383Z,14.48
2022-08-11T00:30:18.038Z,14.50
2022-08-11T00:32:54.355Z,14.49
2022-08-11T00:35:54.228Z,14.46
2022-08-11T00:38:15.292Z,14.40
2022-08-11T00:40:45.707Z,14.41
2022-08-11T00:43:22.345Z,14.46
2022-08-11T00:46:12.090Z,14.42
2022-08-11T00:48:53.550Z,14.36
2022-08-11T00:51:27.023Z,14.37
2022-08-11T00:54:33.786Z,14.33
2022-08-11T00:57:43.276Z,14.34
2022-08-11T01:00:16.589Z,14.31
2022-08-11T01:03:03.637Z,14.33
2022-08-11T01:06:07.795Z,14.28
2022-08-11T01:09:17.875Z,14.25
2022-08-11T01:12:07.240Z,14.24
2022-08-11T01:14:52.171Z,14.19
2022-08-11T01:18:07.842Z,14.19
2022-08-11T01:21:05.343Z,14.17
2022-08-11T01:24:05.839Z,14.20
2022-08-11T01:27:19.457Z,14.17
2022-08-11T01:30:09.624Z,14.16
2022-08-11T01:33:10.264Z,14.12
2022-08-11T01:36:19.080Z,13.94
2022-08-11T01:39:23.481Z,14.05
2022-08-11T01:42:40.430Z,13.99
2022-08-11T01:45:14.056Z,14.02
2022-08-11T01:47:54.645Z,13.90
2022-08-11T01:50:30.243Z,13.86
2022-08-11T01:53:10.370Z,13.73
2022-08-11T01:55:51.521Z,13.41
2022-08-11T01:58:36.255Z,13.72
2022-08-11T02:01:32.742Z,13.75
2022-08-11T02:04:08.152Z,13.46
2022-08-11T02:06:57.261Z,13.65
2022-08-11T02:09:49.751Z,13.62
2022-08-11T02:12:28.758Z,13.51
2022-08-11T02:15:05.812Z,13.60
2022-08-11T02:17:43.341Z,13.63
2022-08-11T02:20:35.731Z,13.61
2022-08-11T02:24:06.706Z,13.63
2022-08-11T02:26:21.204Z,13.66
2022-08-11T02:29:03.246Z,13.65
2022-08-11T02:32:24.025Z,13.70
2022-08-11T02:35:00.221Z,13.69
2022-08-11T02:37:38.306Z,13.61
2022-08-11T02:40:19.288Z,13.61
2022-08-11T02:42:59.419Z,13.66
2022-08-11T02:45:36.354Z,13.64
2022-08-11T02:48:27.798Z,13.57
2022-08-11T02:51:06.227Z,13.50
2022-08-11T02:53:40.933Z,13.45
2022-08-11T02:56:15.718Z,13.40
2022-08-11T02:59:12.984Z,13.38
2022-08-11T03:01:49.307Z,13.38
2022-08-11T03:04:24.282Z,13.35
2022-08-11T03:07:28.639Z,13.07
2022-08-11T03:10:10.011Z,13.28
2022-08-11T03:13:02.351Z,13.24
2022-08-11T03:15:51.309Z,13.03
2022-08-11T03:18:26.912Z,13.21
2022-08-11T03:21:00.159Z,13.15
2022-08-11T03:23:32.408Z,13.17
2022-08-11T03:26:04.919Z,13.16
2022-08-11T03:28:36.433Z,13.00
2022-08-11T03:31:19.285Z,13.07
2022-08-11T03:34:06.832Z,13.15
2022-08-11T03:37:40.645Z,13.11
2022-08-11T03:40:43.168Z,12.99
2022-08-11T03:43:23.858Z,12.93
2022-08-11T03:45:59.717Z,13.00
2022-08-11T03:48:42.199Z,13.02
2022-08-11T03:51:18.854Z,13.01
2022-08-11T03:54:02.935Z,13.05
2022-08-11T03:57:00.647Z,13.02
2022-08-11T03:59:53.651Z,12.95
2022-08-11T04:02:40.583Z,12.92
2022-08-11T04:05:56.387Z,12.96
2022-08-11T04:08:59.197Z,13.02
2022-08-11T04:11:49.063Z,13.01
2022-08-11T04:15:01.066Z,13.06
2022-08-11T04:18:00.674Z,13.07
2022-08-11T04:21:16.677Z,13.18
2022-08-11T04:24:35.439Z,13.19
2022-08-11T04:27:08.861Z,13.18
2022-08-11T04:30:05.889Z,13.18
2022-08-11T04:33:20.924Z,13.28
2022-08-11T04:35:55.295Z,13.34
2022-08-11T04:38:46.624Z,13.41
2022-08-11T04:42:31.408Z,13.45
2022-08-11T04:45:27.704Z,13.54
2022-08-11T04:48:32.272Z,13.57
2022-08-11T04:51:35.882Z,13.65
2022-08-11T04:54:36.476Z,13.64
2022-08-11T04:57:41.592Z,13.64
2022-08-11T05:00:29.780Z,13.71
2022-08-11T05:03:35.586Z,13.78
2022-08-11T05:06:51.911Z,13.84
2022-08-11T05:10:05.096Z,13.95
2022-08-11T05:12:38.216Z,13.98
2022-08-11T05:15:24.878Z,14.00
2022-08-11T05:18:14.118Z,14.09
2022-08-11T05:21:05.856Z,14.17
2022-08-11T05:23:53.295Z,14.22
2022-08-11T05:26:47.780Z,14.31
2022-08-11T05:29:47.625Z,14.41
2022-08-11T05:32:35.408Z,14.46
2022-08-11T05:35:07.606Z,14.55
2022-08-11T05:37:53.442Z,14.59
2022-08-11T05:40:39.245Z,14.70
2022-08-11T05:43:30.964Z,14.83
2022-08-11T05:46:17.667Z,14.95
2022-08-11T05:49:04.951Z,14.83
2022-08-11T05:52:05.509Z,15.20
2022-08-11T05:54:59.564Z,15.30
2022-08-11T05:57:44.038Z,15.18
2022-08-11T06:00:20.442Z,15.53
2022-08-11T06:02:55.562Z,15.66
2022-08-11T06:05:25.204Z,15.77
2022-08-11T06:07:57.549Z,15.92
2022-08-11T06:10:28.450Z,15.96
2022-08-11T06:12:57.338Z,16.16
2022-08-11T06:15:27.084Z,16.30
2022-08-11T06:17:56.840Z,16.48
2022-08-11T06:20:25.712Z,16.64
2022-08-11T06:23:00.914Z,16.84
2022-08-11T06:25:36.036Z,17.05
2022-08-11T06:28:07.085Z,17.31
2022-08-11T06:30:40.589Z,17.56
2022-08-11T06:33:11.633Z,17.17
2022-08-11T06:35:53.440Z,17.89
2022-08-11T06:38:39.456Z,17.88
2022-08-11T06:41:32.014Z,18.15
2022-08-11T06:44:24.331Z,18.30
2022-08-11T06:46:56.068Z,18.38
2022-08-11T06:49:51.370Z,18.54
2022-08-11T06:52:34.138Z,18.61
2022-08-11T06:55:55.643Z,18.67
2022-08-11T06:58:18.354Z,18.82
2022-08-11T07:00:48.619Z,18.96
2022-08-11T07:03:19.851Z,19.14
2022-08-11T07:05:51.947Z,19.17
2022-08-11T07:09:14.371Z,19.37
2022-08-11T07:12:17.427Z,19.54
2022-08-11T07:15:09.357Z,19.67
2022-08-11T07:17:43.812Z,19.64
2022-08-11T07:20:31.961Z,19.77
2022-08-11T07:23:20.459Z,19.84
2022-08-11T07:26:08.710Z,20.09
2022-08-11T07:28:59.767Z,20.13
2022-08-11T07:31:33.513Z,20.19
2022-08-11T07:34:15.904Z,20.31
2022-08-11T07:36:51.407Z,20.46
2022-08-11T07:39:22.650Z,20.59
2022-08-11T07:41:52.709Z,20.61
2022-08-11T07:44:29.424Z,20.71
2022-08-11T07:47:18.759Z,20.71
2022-08-11T07:50:05.003Z,20.84
2022-08-11T07:52:38.338Z,21.05
2022-08-11T07:55:10.423Z,21.16
2022-08-11T07:58:15.050Z,21.15
2022-08-11T08:01:10.232Z,21.19
2022-08-11T08:04:02.566Z,21.27
2022-08-11T08:06:51.431Z,21.21
2022-08-11T08:09:38.660Z,21.27
2022-08-11T08:12:25.316Z,21.23
2022-08-11T08:15:12.568Z,21.19
2022-08-11T08:18:08.552Z,21.37
2022-08-11T08:20:46.810Z,21.45
2022-08-11T08:23:15.206Z,21.35
2022-08-11T08:25:45.557Z,21.67
2022-08-11T08:28:18.157Z,21.81
2022-08-11T08:30:48.392Z,21.84
2022-08-11T08:33:21.162Z,22.01
2022-08-11T08:35:55.789Z,22.07
2022-08-11T08:38:25.395Z,22.06
2022-08-11T08:40:56.481Z,22.11
2022-08-11T08:43:25.657Z,22.18
2022-08-11T08:45:57.023Z,22.16
2022-08-11T08:48:27.885Z,21.99
2022-08-11T08:51:16.740Z,21.71
2022-08-11T08:53:53.461Z,21.84
2022-08-11T08:56:28.447Z,22.05
2022-08-11T08:58:58.038Z,22.31
2022-08-11T09:01:26.675Z,22.53
2022-08-11T09:04:06.604Z,22.50
2022-08-11T09:06:43.060Z,22.61
2022-08-11T09:09:13.311Z,22.60
2022-08-11T09:11:53.632Z,22.80
2022-08-11T09:14:23.651Z,22.89
2022-08-11T09:16:52.205Z,22.92
2022-08-11T09:19:22.577Z,22.77
2022-08-11T09:22:06.150Z,22.67
2022-08-11T09:24:52.480Z,22.84
2022-08-11T09:27:21.639Z,22.74
2022-08-11T09:29:50.369Z,22.33
2022-08-11T09:32:21.411Z,22.61
2022-08-11T09:34:52.069Z,22.77
2022-08-11T09:37:56.026Z,23.18
2022-08-11T09:40:31.456Z,23.55
2022-08-11T09:43:20.217Z,23.67
2022-08-11T09:45:53.527Z,23.53
2022-08-11T09:48:22.328Z,23.78
2022-08-11T09:50:55.604Z,23.89
2022-08-11T09:53:35.711Z,23.88
2022-08-11T09:56:21.063Z,24.01
2022-08-11T09:58:49.395Z,24.43
2022-08-11T10:01:27.625Z,24.76
2022-08-11T10:04:01.801Z,25.05
2022-08-11T10:06:54.068Z,25.45
2022-08-11T10:09:25.339Z,25.70
2022-08-11T10:11:58.005Z,25.16
2022-08-11T10:14:45.470Z,25.34
2022-08-11T10:17:15.028Z,25.30
2022-08-11T10:19:44.764Z,25.38
2022-08-11T10:22:51.061Z,25.64
2022-08-11T10:25:37.518Z,25.85
2022-08-11T10:28:33.057Z,25.95
2022-08-11T10:31:16.493Z,25.89
2022-08-11T10:34:04.693Z,25.85
2022-08-11T10:36:35.685Z,26.11
2022-08-11T10:39:07.577Z,25.96
2022-08-11T10:42:07.746Z,25.94
2022-08-11T10:44:42.969Z,26.08
2022-08-11T10:47:31.662Z,25.87
2022-08-11T10:50:17.702Z,25.70
2022-08-11T10:53:04.054Z,25.60
2022-08-11T10:55:51.715Z,25.48
2022-08-11T10:58:37.819Z,25.59
2022-08-11T11:01:06.764Z,25.50
2022-08-11T11:03:36.810Z,25.69
2022-08-11T11:06:12.555Z,26.02
2022-08-11T11:09:04.159Z,26.47
2022-08-11T11:11:55.111Z,26.63
2022-08-11T11:14:41.631Z,27.05
2022-08-11T11:17:32.808Z,27.10
2022-08-11T11:20:02.091Z,27.12
2022-08-11T11:22:39.980Z,26.95
2022-08-11T11:25:22.949Z,26.06
2022-08-11T11:28:07.463Z,26.12
2022-08-11T11:30:41.305Z,26.23
2022-08-11T11:33:14.901Z,26.29
2022-08-11T11:35:51.049Z,26.86
2022-08-11T11:38:19.597Z,26.70
2022-08-11T11:41:08.981Z,26.41
2022-08-11T11:43:38.736Z,26.57
2022-08-11T11:46:10.900Z,26.99
2022-08-11T11:48:39.703Z,27.25
2022-08-11T11:51:08.139Z,27.45
2022-08-11T11:53:37.718Z,27.29
2022-08-11T11:56:06.614Z,26.99
2022-08-11T11:58:52.143Z,27.05
2022-08-11T12:01:25.307Z,26.74
2022-08-11T12:03:55.605Z,26.88
2022-08-11T12:06:25.395Z,27.04
2022-08-11T12:08:55.558Z,27.13
2022-08-11T12:11:43.578Z,27.22
2022-08-11T12:14:12.687Z,27.71
2022-08-11T12:16:43.939Z,28.20
2022-08-11T12:19:14.970Z,28.11
2022-08-11T12:22:05.190Z,28.15
2022-08-11T12:24:51.189Z,27.80
2022-08-11T12:27:25.335Z,27.59
2022-08-11T12:30:00.173Z,27.21
2022-08-11T12:32:33.301Z,27.23
2022-08-11T12:35:01.999Z,27.34
2022-08-11T12:37:33.277Z,27.51
2022-08-11T12:41:11.173Z,28.14
2022-08-11T12:43:37.407Z,28.58
2022-08-11T12:46:09.476Z,28.90
2022-08-11T12:49:13.584Z,28.79
2022-08-11T12:52:13.551Z,29.10
2022-08-11T12:55:13.938Z,28.80
2022-08-11T12:58:03.557Z,28.84
2022-08-11T13:00:49.511Z,28.57
2022-08-11T13:03:38.448Z,28.64
2022-08-11T13:06:09.564Z,27.95
2022-08-11T13:08:39.589Z,27.96
2022-08-11T13:11:56.985Z,28.59
2022-08-11T13:14:15.508Z,28.84
2022-08-11T13:17:02.683Z,28.85
2022-08-11T13:19:32.190Z,28.61
2022-08-11T13:22:02.547Z,28.36
2022-08-11T13:24:34.118Z,28.48
2022-08-11T13:27:03.120Z,28.84
2022-08-11T13:29:31.363Z,28.60
2022-08-11T13:32:01.016Z,28.44
2022-08-11T13:34:31.262Z,28.38
2022-08-11T13:37:04.294Z,28.40
2022-08-11T13:39:33.807Z,28.19
2022-08-11T13:42:03.772Z,27.94
2022-08-11T13:44:35.976Z,27.38
2022-08-11T13:47:06.579Z,27.29
2022-08-11T13:49:40.996Z,27.51
2022-08-11T13:52:14.162Z,27.61
2022-08-11T13:54:43.598Z,27.94
2022-08-11T13:58:07.180Z,28.56
2022-08-11T14:00:13.299Z,28.55
2022-08-11T14:02:54.851Z,27.95
2022-08-11T14:05:27.619Z,27.80
2022-08-11T14:08:01.392Z,27.55
2022-08-11T14:10:32.903Z,27.82
2022-08-11T14:13:21.818Z,28.15
2022-08-11T14:15:51.226Z,28.55
2022-08-11T14:18:20.905Z,28.87
2022-08-11T14:21:16.780Z,29.02
2022-08-11T14:23:48.072Z,28.87
2022-08-11T14:26:31.678Z,28.61
2022-08-11T14:29:03.268Z,28.60
2022-08-11T14:31:33.251Z,28.26
2022-08-11T14:34:03.495Z,27.95
2022-08-11T14:36:34.102Z,28.08
2022-08-11T14:39:07.186Z,27.96
2022-08-11T14:42:10.087Z,28.22
2022-08-11T14:45:02.008Z,27.80
2022-08-11T14:47:32.030Z,27.93
2022-08-11T14:50:11.848Z,27.59
2022-08-11T14:52:45.911Z,27.53
2022-08-11T14:55:33.178Z,27.73
2022-08-11T14:58:02.133Z,27.69
2022-08-11T15:00:31.603Z,27.39
2022-08-11T15:03:12.092Z,27.18
2022-08-11T15:05:55.939Z,27.27
2022-08-11T15:08:47.793Z,27.07
2022-08-11T15:11:37.492Z,27.03
2022-08-11T15:14:08.291Z,27.21
2022-08-11T15:16:55.578Z,27.15
2022-08-11T15:19:27.519Z,27.10
2022-08-11T15:22:13.317Z,26.98
2022-08-11T15:24:41.607Z,26.77
2022-08-11T15:27:31.337Z,26.68
2022-08-11T15:30:32.475Z,26.71
2022-08-11T15:33:22.156Z,26.71
2022-08-11T15:36:08.138Z,26.61
2022-08-11T15:38:37.460Z,26.56
2022-08-11T15:41:24.440Z,26.66
2022-08-11T15:44:13.091Z,26.51
2022-08-11T15:46:43.901Z,26.44
2022-08-11T15:49:21.971Z,26.30
2022-08-11T15:51:52.426Z,26.22
2022-08-11T15:54:23.460Z,26.14
2022-08-11T15:56:53.207Z,26.09
2022-08-11T15:59:43.058Z,25.81
2022-08-11T16:02:32.197Z,25.57
2022-08-11T16:05:02.537Z,25.38
2022-08-11T16:07:40.472Z,25.27
2022-08-11T16:10:18.661Z,24.88
2022-08-11T16:13:21.890Z,24.77
2022-08-11T16:16:14.345Z,24.68
2022-08-11T16:18:47.249Z,24.53
2022-08-11T16:21:33.487Z,24.49
2022-08-11T16:24:07.476Z,24.44
2022-08-11T16:27:09.353Z,24.39
2022-08-11T16:29:28.238Z,23.89
2022-08-11T16:32:15.738Z,24.21
2022-08-11T16:35:03.157Z,24.17
2022-08-11T16:37:50.267Z,24.09
2022-08-11T16:40:19.387Z,23.96
2022-08-11T16:43:10.049Z,23.92
2022-08-11T16:45:58.843Z,23.83
2022-08-11T16:48:35.403Z,23.78
2022-08-11T16:51:06.760Z,23.65
2022-08-11T16:53:54.908Z,23.63
2022-08-11T16:56:26.942Z,23.61
2022-08-11T16:59:15.329Z,23.40
2022-08-11T17:01:46.532Z,23.46
2022-08-11T17:04:40.185Z,23.40
2022-08-11T17:07:42.385Z,23.31
2022-08-11T17:10:51.156Z,23.34
2022-08-11T17:13:35.584Z,23.31
2022-08-11T17:16:07.850Z,23.25
2022-08-11T17:18:44.343Z,23.21
2022-08-11T17:21:20.195Z,23.14
2022-08-11T17:23:50.669Z,23.08
2022-08-11T17:26:25.642Z,22.92
2022-08-11T17:28:56.760Z,22.91
2022-08-11T17:31:43.667Z,22.81
2022-08-11T17:34:30.048Z,22.73
2022-08-11T17:37:00.637Z,22.63
2022-08-11T17:39:31.411Z,22.45
2022-08-11T17:42:17.782Z,22.50
2022-08-11T17:45:04.445Z,22.36
2022-08-11T17:47:51.108Z,22.25
2022-08-11T17:50:20.284Z,22.08
2022-08-11T17:53:07.512Z,22.20
2022-08-11T17:56:02.774Z,22.15
2022-08-11T17:58:51.795Z,22.15
2022-08-11T18:01:23.357Z,22.08
2022-08-11T18:03:54.591Z,22.00
2022-08-11T18:06:34.444Z,21.91
2022-08-11T18:09:29.222Z,21.76
2022-08-11T18:12:15.304Z,21.59
2022-08-11T18:15:04.571Z,21.59
2022-08-11T18:17:51.068Z,21.35
2022-08-11T18:20:37.433Z,21.23
2022-08-11T18:23:40.482Z,21.08
2022-08-11T18:26:36.753Z,20.94
2022-08-11T18:29:22.891Z,20.83
2022-08-11T18:32:09.003Z,20.70
2022-08-11T18:34:56.428Z,20.61
2022-08-11T18:37:45.227Z,20.52
2022-08-11T18:40:34.622Z,20.29
2022-08-11T18:43:27.164Z,20.21
2022-08-11T18:46:17.897Z,20.18
2022-08-11T18:49:14.493Z,20.08
2022-08-11T18:52:05.639Z,19.96
2022-08-11T18:54:53.730Z,19.93
2022-08-11T18:57:54.179Z,19.51
2022-08-11T19:00:42.754Z,19.74
2022-08-11T19:03:30.464Z,19.61
2022-08-11T19:06:39.263Z,19.49
2022-08-11T19:09:26.273Z,19.35
2022-08-11T19:12:12.514Z,19.14
2022-08-11T19:14:59.105Z,19.22
2022-08-11T19:17:46.878Z,19.17
2022-08-11T19:20:34.518Z,18.86
2022-08-11T19:23:22.035Z,18.73
2022-08-11T19:26:08.267Z,18.59
2022-08-11T19:28:55.899Z,18.42
2022-08-11T19:31:44.841Z,18.25
2022-08-11T19:34:32.696Z,18.08
2022-08-11T19:37:22.145Z,17.86
2022-08-11T19:40:11.096Z,17.67
2022-08-11T19:42:56.876Z,17.59
2022-08-11T19:45:42.964Z,17.58
2022-08-11T19:48:32.567Z,17.48
2022-08-11T19:51:20.299Z,17.42
2022-08-11T19:54:06.909Z,17.43
2022-08-11T19:56:53.028Z,17.30
2022-08-11T19:59:40.938Z,17.28
2022-08-11T20:02:27.131Z,16.90
2022-08-11T20:05:13.454Z,17.10
2022-08-11T20:08:00.913Z,16.70
2022-08-11T20:10:47.846Z,17.00
2022-08-11T20:13:34.657Z,16.90
2022-08-11T20:16:21.068Z,16.94
2022-08-11T20:19:08.316Z,16.84
2022-08-11T20:21:54.445Z,16.68
2022-08-11T20:24:41.753Z,16.74
2022-08-11T20:27:27.543Z,16.69
2022-08-11T20:30:15.289Z,16.67
2022-08-11T20:33:01.046Z,16.62
2022-08-11T20:35:47.463Z,16.49
2022-08-11T20:38:34.184Z,16.49
2022-08-11T20:41:22.005Z,16.45
2022-08-11T20:44:09.664Z,16.27
2022-08-11T20:46:57.136Z,16.37
2022-08-11T20:49:48.806Z,16.33
2022-08-11T20:52:39.487Z,16.25
2022-08-11T20:55:51.274Z,16.40
2022-08-11T21:01:42.168Z,16.32
2022-08-11T21:04:28.170Z,16.41
2022-08-11T21:07:23.590Z,16.39
2022-08-11T21:10:23.215Z,16.39
2022-08-11T21:13:25.728Z,16.33
2022-08-11T21:16:25.321Z,16.24
2022-08-11T21:19:16.653Z,16.33
2022-08-11T21:22:03.801Z,16.33
2022-08-11T21:24:51.094Z,16.32
2022-08-11T21:27:36.877Z,16.28
2022-08-11T21:30:23.847Z,16.36
2022-08-11T21:33:11.916Z,16.37
2022-08-11T21:35:57.883Z,16.36
2022-08-11T21:38:43.831Z,16.30
2022-08-11T21:41:29.817Z,16.28
2022-08-11T21:44:16.217Z,16.30
2022-08-11T21:47:02.269Z,16.27
2022-08-11T21:49:49.908Z,16.19
2022-08-11T21:52:36.127Z,16.18
2022-08-11T21:55:21.930Z,16.07
2022-08-11T21:58:08.033Z,16.02
2022-08-11T22:00:53.955Z,15.88
2022-08-11T22:03:49.288Z,15.94
2022-08-11T22:06:37.779Z,15.83
2022-08-11T22:09:23.237Z,15.71
2022-08-11T22:12:34.375Z,15.54
2022-08-11T22:15:14.867Z,15.79
2022-08-11T22:18:00.407Z,15.85
2022-08-11T22:20:47.546Z,15.88
2022-08-11T22:23:36.275Z,15.91
2022-08-11T22:26:23.470Z,15.84
2022-08-11T22:29:10.127Z,15.97
2022-08-11T22:31:56.586Z,16.02
2022-08-11T22:34:52.822Z,16.17
2022-08-11T22:37:39.556Z,16.16
2022-08-11T22:40:28.524Z,16.20
2022-08-11T22:43:14.276Z,16.23
2022-08-11T22:46:00.183Z,16.28
2022-08-11T22:48:48.153Z,16.33
2022-08-11T22:51:34.439Z,16.28
2022-08-11T22:54:21.304Z,16.24
2022-08-11T22:57:09.164Z,16.08
2022-08-11T22:59:55.761Z,16.06
2022-08-11T23:02:42.146Z,16.11
2022-08-11T23:05:28.644Z,16.10
2022-08-11T23:08:14.815Z,16.08
2022-08-11T23:11:00.714Z,15.96
2022-08-11T23:13:47.936Z,15.83
2022-08-11T23:16:34.260Z,15.79
2022-08-11T23:20:09.776Z,15.77
2022-08-11T23:22:36.965Z,15.75
2022-08-11T23:25:33.255Z,15.66
2022-08-11T23:28:21.048Z,15.63
2022-08-11T23:31:08.344Z,15.60
2022-08-11T23:33:56.735Z,15.58
2022-08-11T23:36:47.663Z,15.53
2022-08-11T23:39:33.829Z,15.50
2022-08-11T23:42:19.672Z,15.50
2022-08-11T23:45:09.684Z,15.41
2022-08-11T23:47:57.825Z,15.34
2022-08-11T23:50:44.204Z,15.27
2022-08-11T23:53:31.042Z,15.15
2022-08-11T23:56:16.856Z,15.06
2022-08-11T23:59:02.738Z,15.02
